createdAt,value
2018-12-25T01:39:28.515Z,80.00
2018-12-25T01:40:07.708Z,75.50
2018-12-25T01:40:47.330Z,75.40
2018-12-25T01:41:25.983Z,76.90
2018-12-25T01:42:05.533Z,78.10
2018-12-25T01:42:44.599Z,76.20
2018-12-25T01:43:24.155Z,76.00
2018-12-25T01:44:03.046Z,73.70
2018-12-25T01:44:41.993Z,72.10
2018-12-25T01:45:21.386Z,71.50
2018-12-25T01:46:00.054Z,70.70
2018-12-25T01:46:39.280Z,69.80
2018-12-25T01:47:18.757Z,69.20
2018-12-25T01:47:57.938Z,68.30
2018-12-25T01:48:37.240Z,68.20
2018-12-25T01:49:16.328Z,67.60
2018-12-25T01:49:56.736Z,67.10
2018-12-25T01:50:36.177Z,66.60
2018-12-25T01:51:15.238Z,65.90
2018-12-25T01:51:53.949Z,65.20
2018-12-25T01:52:33.406Z,65.70
2018-12-25T01:53:12.014Z,66.10
2018-12-25T01:53:50.855Z,66.30
2018-12-25T01:54:29.582Z,66.30
2018-12-25T01:55:09.147Z,66.20
2018-12-25T01:55:48.100Z,66.20
2018-12-25T01:56:26.711Z,66.20
2018-12-25T01:57:05.896Z,66.40
2018-12-25T01:57:45.239Z,66.50
2018-12-25T01:58:26.992Z,66.60
2018-12-25T01:59:05.736Z,66.60
2018-12-25T01:59:44.541Z,66.50
2018-12-25T02:00:23.178Z,66.60
2018-12-25T02:01:01.899Z,66.50
2018-12-25T02:01:41.098Z,66.70
2018-12-25T02:02:20.441Z,67.10
2018-12-25T02:02:59.805Z,67.10
2018-12-25T02:03:38.933Z,67.30
2018-12-25T02:04:18.268Z,67.40
2018-12-25T02:04:56.986Z,67.60
2018-12-25T02:05:36.235Z,67.70
2018-12-25T02:06:15.909Z,67.90
2018-12-25T02:06:55.554Z,68.20
2018-12-25T02:07:34.217Z,68.60
2018-12-25T02:08:12.929Z,68.80
2018-12-25T02:08:51.558Z,69.00
2018-12-25T02:09:30.502Z,69.40
2018-12-25T02:10:09.306Z,70.00
2018-12-25T02:10:48.535Z,70.20
2018-12-25T02:11:27.865Z,70.60
2018-12-25T02:12:07.051Z,70.30
2018-12-25T02:12:45.829Z,70.40
2018-12-25T02:13:24.519Z,70.80
2018-12-25T02:14:03.415Z,71.10
2018-12-25T02:14:42.153Z,71.70
2018-12-25T02:15:20.983Z,72.30
2018-12-25T02:16:00.307Z,72.60
2018-12-25T02:16:39.151Z,72.80
2018-12-25T02:17:19.109Z,72.90
2018-12-25T02:17:58.171Z,73.10
2018-12-25T02:18:37.715Z,73.20
2018-12-25T02:19:16.397Z,73.00
2018-12-25T02:19:55.568Z,73.00
2018-12-25T02:20:34.265Z,73.10
2018-12-25T02:21:12.999Z,73.50
2018-12-25T02:21:51.976Z,73.60
2018-12-25T02:22:31.077Z,73.80
2018-12-25T02:23:10.432Z,74.10
2018-12-25T02:23:49.658Z,74.10
2018-12-25T02:24:32.099Z,74.50
2018-12-25T02:25:11.454Z,74.50
2018-12-25T02:25:50.355Z,74.60
2018-12-25T02:26:29.077Z,74.80
2018-12-25T02:27:08.417Z,74.70
2018-12-25T02:27:48.947Z,74.90
2018-12-25T02:28:28.172Z,75.00
2018-12-25T02:29:07.426Z,75.00
2018-12-25T02:29:46.030Z,75.20
2018-12-25T02:30:24.729Z,75.10
2018-12-25T02:31:03.421Z,75.20
2018-12-25T02:31:42.645Z,75.70
2018-12-25T02:32:21.952Z,75.60
2018-12-25T02:33:01.193Z,75.50
2018-12-25T02:33:40.585Z,76.00
2018-12-25T02:34:19.906Z,76.50
2018-12-25T02:34:58.754Z,76.50
2018-12-25T02:35:37.933Z,75.80
2018-12-25T02:36:16.554Z,76.50
2018-12-25T02:36:55.310Z,76.80
2018-12-25T02:37:33.963Z,77.20
2018-12-25T02:38:12.714Z,77.10
2018-12-25T02:38:51.836Z,76.80
2018-12-25T02:39:31.170Z,77.30
2018-12-25T02:40:10.323Z,77.10
2018-12-25T02:40:48.954Z,77.10
2018-12-25T02:41:27.743Z,77.10
2018-12-25T02:42:06.772Z,77.40
2018-12-25T02:42:46.215Z,77.10
2018-12-25T02:43:25.723Z,77.40
2018-12-25T02:44:04.688Z,77.10
2018-12-25T02:44:43.774Z,77.30
2018-12-25T02:45:22.873Z,77.60
2018-12-25T02:46:01.775Z,77.60
2018-12-25T02:46:41.324Z,77.50
2018-12-25T02:47:20.095Z,77.80
2018-12-25T02:47:58.779Z,77.60
2018-12-25T02:48:37.450Z,77.70
2018-12-25T02:49:18.326Z,77.80
2018-12-25T02:49:56.210Z,77.90
2018-12-25T02:50:34.826Z,77.80
2018-12-25T02:51:13.863Z,78.50
2018-12-25T02:51:52.994Z,77.90
2018-12-25T02:52:32.350Z,77.90
2018-12-25T02:53:11.884Z,77.70
2018-12-25T02:53:51.051Z,77.60
2018-12-25T02:54:30.379Z,77.80
2018-12-25T02:55:09.147Z,77.90
2018-12-25T02:55:47.858Z,77.90
2018-12-25T02:56:26.588Z,77.90
2018-12-25T02:57:05.457Z,77.80
2018-12-25T02:57:44.689Z,77.80
2018-12-25T02:58:23.291Z,77.80
2018-12-25T02:59:01.985Z,77.90
2018-12-25T02:59:41.427Z,77.80
2018-12-25T03:00:20.941Z,78.10
2018-12-25T03:00:59.590Z,77.70
2018-12-25T03:01:38.294Z,77.80
2018-12-25T03:02:16.990Z,78.00
2018-12-25T03:02:55.714Z,77.90
2018-12-25T03:03:38.976Z,78.00
2018-12-25T03:04:17.758Z,77.50
2018-12-25T03:04:57.372Z,77.90
2018-12-25T03:05:36.359Z,78.20
2018-12-25T03:06:15.103Z,78.00
2018-12-25T03:06:56.030Z,78.10
2018-12-25T03:07:35.300Z,77.90
2018-12-25T03:08:14.698Z,78.00
2018-12-25T03:08:54.109Z,78.00
2018-12-25T03:09:33.313Z,78.10
2018-12-25T03:10:12.558Z,78.20
2018-12-25T03:10:51.849Z,78.30
2018-12-25T03:11:30.485Z,79.30
2018-12-25T03:12:09.266Z,78.40
2018-12-25T03:12:47.886Z,78.50
2018-12-25T03:13:26.533Z,78.10
2018-12-25T03:14:05.753Z,78.50
2018-12-25T03:14:45.247Z,78.30
2018-12-25T03:15:24.447Z,78.30
2018-12-25T03:16:03.111Z,78.00
2018-12-25T03:16:42.646Z,78.20
2018-12-25T03:17:21.316Z,78.10
2018-12-25T03:17:59.889Z,78.00
2018-12-25T03:18:38.627Z,78.10
2018-12-25T03:19:17.325Z,77.70
2018-12-25T03:19:59.950Z,77.70
2018-12-25T03:20:36.866Z,77.70
2018-12-25T03:21:16.055Z,78.10
2018-12-25T03:21:55.578Z,78.10
2018-12-25T03:22:34.730Z,77.70
2018-12-25T03:23:13.810Z,78.20
2018-12-25T03:23:52.438Z,78.10
2018-12-25T03:24:31.856Z,77.80
2018-12-25T03:25:10.623Z,77.90
2018-12-25T03:25:49.339Z,77.80
2018-12-25T03:26:28.023Z,77.60
2018-12-25T03:27:07.085Z,77.90
2018-12-25T03:27:46.162Z,77.70
2018-12-25T03:28:25.087Z,77.90
2018-12-25T03:29:04.566Z,78.30
2018-12-25T03:29:43.268Z,77.90
2018-12-25T03:30:22.401Z,77.40
2018-12-25T03:31:01.200Z,77.60
2018-12-25T03:31:39.959Z,77.40
2018-12-25T03:32:18.656Z,77.50
2018-12-25T03:32:57.711Z,77.50
2018-12-25T03:33:36.668Z,77.60
2018-12-25T03:34:18.874Z,77.60
2018-12-25T03:35:01.312Z,77.70
2018-12-25T03:35:40.088Z,77.30
2018-12-25T03:36:19.332Z,77.30
2018-12-25T03:36:58.366Z,77.50
2018-12-25T03:37:37.597Z,79.80
2018-12-25T03:38:16.775Z,81.20
2018-12-25T03:38:56.028Z,81.70
2018-12-25T03:39:35.471Z,81.30
2018-12-25T03:40:15.023Z,81.50
2018-12-25T03:40:54.530Z,81.90
2018-12-25T03:41:33.903Z,82.30
2018-12-25T03:42:12.977Z,82.50
2018-12-25T03:42:51.769Z,82.90
2018-12-25T03:43:30.489Z,81.90
2018-12-25T03:44:09.187Z,82.30
2018-12-25T03:44:50.710Z,82.10
2018-12-25T03:45:29.363Z,81.50
2018-12-25T03:46:08.070Z,81.00
2018-12-25T03:46:46.979Z,81.30
2018-12-25T03:47:26.076Z,81.30
2018-12-25T03:48:05.392Z,80.80
2018-12-25T03:48:44.642Z,80.30
2018-12-25T03:49:23.933Z,80.30
2018-12-25T03:50:10.664Z,79.80
2018-12-25T03:50:43.445Z,79.90
2018-12-25T03:51:22.242Z,79.70
2018-12-25T03:52:00.989Z,79.60
2018-12-25T03:52:39.956Z,79.40
2018-12-25T03:53:18.573Z,79.40
2018-12-25T03:53:57.233Z,79.10
2018-12-25T03:54:36.163Z,78.90
2018-12-25T03:55:15.870Z,79.00
2018-12-25T03:55:55.537Z,79.10
2018-12-25T03:56:34.616Z,78.50
2018-12-25T03:57:13.232Z,78.60
2018-12-25T03:57:51.939Z,78.30
2018-12-25T03:58:30.635Z,78.30
2018-12-25T03:59:09.810Z,78.50
2018-12-25T03:59:48.676Z,78.30
2018-12-25T04:00:29.178Z,78.20
2018-12-25T04:01:08.023Z,77.90
2018-12-25T04:01:47.576Z,77.80
2018-12-25T04:02:29.364Z,77.90
2018-12-25T04:03:08.796Z,77.80
2018-12-25T04:03:50.790Z,77.80
2018-12-25T04:04:30.005Z,77.70
2018-12-25T04:05:09.321Z,77.50
2018-12-25T04:05:48.553Z,77.70
2018-12-25T04:06:27.682Z,77.50
2018-12-25T04:07:06.975Z,77.40
2018-12-25T04:07:46.269Z,77.40
2018-12-25T04:08:24.893Z,78.30
2018-12-25T04:09:03.578Z,77.20
2018-12-25T04:09:42.318Z,77.40
2018-12-25T04:10:21.234Z,77.30
2018-12-25T04:11:00.198Z,77.50
2018-12-25T04:11:39.454Z,77.40
2018-12-25T04:12:18.474Z,77.30
2018-12-25T04:12:57.413Z,77.20
2018-12-25T04:13:36.758Z,77.30
2018-12-25T04:14:15.483Z,77.20
2018-12-25T04:14:54.883Z,77.00
2018-12-25T04:15:33.545Z,77.30
2018-12-25T04:16:12.155Z,77.00
2018-12-25T04:16:50.977Z,77.20
2018-12-25T04:17:32.888Z,77.10
2018-12-25T04:18:11.592Z,77.10
2018-12-25T04:18:50.889Z,77.00
2018-12-25T04:19:30.221Z,77.10
2018-12-25T04:20:08.872Z,76.90
2018-12-25T04:20:48.263Z,76.90
2018-12-25T04:21:27.514Z,77.10
2018-12-25T04:22:06.844Z,76.70
2018-12-25T04:22:45.575Z,76.80
2018-12-25T04:23:24.334Z,76.80
2018-12-25T04:24:03.095Z,76.80
2018-12-25T04:24:43.634Z,77.00
2018-12-25T04:25:22.893Z,77.00
2018-12-25T04:26:01.556Z,76.80
2018-12-25T04:26:40.703Z,76.70
2018-12-25T04:27:20.223Z,76.70
2018-12-25T04:27:59.562Z,76.70
2018-12-25T04:28:39.186Z,76.50
2018-12-25T04:29:18.027Z,76.70
2018-12-25T04:29:56.740Z,76.70
2018-12-25T04:30:35.806Z,76.60
2018-12-25T04:31:18.076Z,76.60
2018-12-25T04:31:56.972Z,76.70
2018-12-25T04:32:35.842Z,77.00
2018-12-25T04:33:14.434Z,77.00
2018-12-25T04:33:53.272Z,76.80
2018-12-25T04:34:33.702Z,76.80
2018-12-25T04:35:12.575Z,76.60
2018-12-25T04:35:51.477Z,76.70
2018-12-25T04:36:30.506Z,76.80
2018-12-25T04:37:09.697Z,76.90
2018-12-25T04:37:48.937Z,76.40
2018-12-25T04:38:27.712Z,76.70
2018-12-25T04:39:08.281Z,77.90
2018-12-25T04:39:47.772Z,77.20
2018-12-25T04:40:27.166Z,76.50
2018-12-25T04:41:06.666Z,77.40
2018-12-25T04:41:45.550Z,77.90
2018-12-25T04:42:24.479Z,78.20
2018-12-25T04:43:03.297Z,77.10
2018-12-25T04:43:42.416Z,77.20
2018-12-25T04:44:21.762Z,78.70
2018-12-25T04:45:00.789Z,77.40
2018-12-25T04:45:40.151Z,77.30
2018-12-25T04:46:19.368Z,77.30
2018-12-25T04:46:58.451Z,77.10
2018-12-25T04:47:37.194Z,77.40
2018-12-25T04:48:15.821Z,77.40
2018-12-25T04:48:54.511Z,77.00
2018-12-25T04:49:33.287Z,76.90
2018-12-25T04:50:12.452Z,77.40
2018-12-25T04:50:51.493Z,76.70
2018-12-25T04:51:30.202Z,77.00
2018-12-25T04:52:09.590Z,76.80
2018-12-25T04:52:48.339Z,76.50
2018-12-25T04:53:27.811Z,76.70
2018-12-25T04:54:07.053Z,76.50
2018-12-25T04:54:45.763Z,76.60
2018-12-25T04:55:24.768Z,76.60
2018-12-25T04:56:03.767Z,76.70
2018-12-25T04:56:43.206Z,76.50
2018-12-25T04:57:22.426Z,76.40
2018-12-25T04:58:01.848Z,76.20
2018-12-25T04:58:41.200Z,76.10
2018-12-25T04:59:20.533Z,76.20
2018-12-25T04:59:59.218Z,76.10
2018-12-25T05:00:38.171Z,76.10
2018-12-25T05:01:17.009Z,76.50
2018-12-25T05:01:55.767Z,76.20
2018-12-25T05:02:34.796Z,76.10
2018-12-25T05:03:13.806Z,75.90
2018-12-25T05:03:52.856Z,76.10
2018-12-25T05:04:31.599Z,76.10
2018-12-25T05:05:10.285Z,76.00
2018-12-25T05:05:48.990Z,76.90
2018-12-25T05:06:28.552Z,77.30
2018-12-25T05:07:07.349Z,77.60
2018-12-25T05:07:46.130Z,77.50
2018-12-25T05:08:25.250Z,77.50
2018-12-25T05:09:04.795Z,77.50
2018-12-25T05:09:43.546Z,78.50
2018-12-25T05:10:22.709Z,78.10
2018-12-25T05:11:01.288Z,78.00
2018-12-25T05:11:40.568Z,78.00
2018-12-25T05:12:19.386Z,78.00
2018-12-25T05:12:58.462Z,78.20
2018-12-25T05:13:37.367Z,78.30
2018-12-25T05:14:16.720Z,78.50
2018-12-25T05:14:55.802Z,78.50
2018-12-25T05:15:34.947Z,78.60
2018-12-25T05:16:18.182Z,79.00
2018-12-25T05:16:56.839Z,78.70
2018-12-25T05:17:35.538Z,78.70
2018-12-25T05:18:15.140Z,78.70
2018-12-25T05:18:54.553Z,78.80
2018-12-25T05:19:33.817Z,78.80
2018-12-25T05:20:13.214Z,78.80
2018-12-25T05:20:53.554Z,79.00
2018-12-25T05:21:33.166Z,78.70
2018-12-25T05:22:12.381Z,78.70
2018-12-25T05:22:51.081Z,78.40
2018-12-25T05:23:29.651Z,78.30
2018-12-25T05:24:08.377Z,78.10
2018-12-25T05:24:47.051Z,77.90
2018-12-25T05:25:26.053Z,77.90
2018-12-25T05:26:04.989Z,77.30
2018-12-25T05:26:45.240Z,77.60
2018-12-25T05:27:24.243Z,77.30
2018-12-25T05:28:03.378Z,77.10
2018-12-25T05:28:42.026Z,77.10
2018-12-25T05:29:20.731Z,77.00
2018-12-25T05:29:59.439Z,76.80
2018-12-25T05:30:38.136Z,76.80
2018-12-25T05:31:16.804Z,76.70
2018-12-25T05:31:56.177Z,76.70
2018-12-25T05:32:35.342Z,76.80
2018-12-25T05:33:14.051Z,76.60
2018-12-25T05:33:52.994Z,76.40
2018-12-25T05:34:32.395Z,76.30
2018-12-25T05:35:11.147Z,76.20
2018-12-25T05:35:50.190Z,76.30
2018-12-25T05:36:28.870Z,76.20
2018-12-25T05:37:07.520Z,76.00
2018-12-25T05:37:46.575Z,75.90
2018-12-25T05:38:25.908Z,75.90
2018-12-25T05:39:05.545Z,75.90
2018-12-25T05:39:45.011Z,75.90
2018-12-25T05:40:24.800Z,75.80
2018-12-25T05:41:03.509Z,75.80
2018-12-25T05:41:42.094Z,75.90
2018-12-25T05:42:20.775Z,75.70
2018-12-25T05:42:59.451Z,75.70
2018-12-25T05:43:38.148Z,75.80
2018-12-25T05:44:17.320Z,75.70
2018-12-25T05:44:56.624Z,75.70
2018-12-25T05:45:35.304Z,75.70
2018-12-25T05:46:14.435Z,75.60
2018-12-25T05:46:53.901Z,75.60
2018-12-25T05:47:33.403Z,75.70
2018-12-25T05:48:12.417Z,75.70
2018-12-25T05:48:51.615Z,75.50
2018-12-25T05:49:32.054Z,75.50
2018-12-25T05:50:10.827Z,75.40
2018-12-25T05:50:49.631Z,75.40
2018-12-25T05:51:28.619Z,75.30
2018-12-25T05:52:07.630Z,75.30
2018-12-25T05:52:46.734Z,75.30
2018-12-25T05:53:26.150Z,75.30
2018-12-25T05:54:05.481Z,75.10
2018-12-25T05:54:44.809Z,75.20
2018-12-25T05:55:24.055Z,75.20
2018-12-25T05:56:02.758Z,75.00
2018-12-25T05:56:43.154Z,74.90
2018-12-25T05:57:21.902Z,74.80
2018-12-25T05:58:01.084Z,74.70
2018-12-25T05:58:39.914Z,74.70
2018-12-25T05:59:18.874Z,74.70
2018-12-25T05:59:58.138Z,75.20
2018-12-25T06:00:37.143Z,74.40
2018-12-25T06:01:16.310Z,74.50
2018-12-25T06:01:55.717Z,74.70
2018-12-25T06:02:34.794Z,74.90
2018-12-25T06:03:13.417Z,75.00
2018-12-25T06:03:52.130Z,74.90
2018-12-25T06:04:30.733Z,75.00
2018-12-25T06:05:09.607Z,75.00
2018-12-25T06:05:48.824Z,74.90
2018-12-25T06:06:27.572Z,74.60
2018-12-25T06:07:06.822Z,74.60
2018-12-25T06:07:46.133Z,74.70
2018-12-25T06:08:25.272Z,74.70
2018-12-25T06:09:05.383Z,74.70
2018-12-25T06:09:44.638Z,74.60
2018-12-25T06:10:23.278Z,74.70
2018-12-25T06:11:01.989Z,74.60
2018-12-25T06:11:40.708Z,74.80
2018-12-25T06:12:19.954Z,74.60
2018-12-25T06:12:59.164Z,74.60
2018-12-25T06:13:38.582Z,74.70
2018-12-25T06:14:17.221Z,74.70
2018-12-25T06:14:56.431Z,74.60
2018-12-25T06:15:37.044Z,74.40
2018-12-25T06:16:16.395Z,74.30
2018-12-25T06:16:55.070Z,74.30
2018-12-25T06:17:33.867Z,74.20
2018-12-25T06:18:12.648Z,74.20
2018-12-25T06:18:51.557Z,73.90
2018-12-25T06:19:30.538Z,73.80
2018-12-25T06:20:09.699Z,73.90
2018-12-25T06:20:55.093Z,74.10
2018-12-25T06:21:29.626Z,74.10
2018-12-25T06:22:08.848Z,74.00
2018-12-25T06:22:47.786Z,74.00
2018-12-25T06:23:27.047Z,74.00
2018-12-25T06:24:11.449Z,74.00
2018-12-25T06:24:50.773Z,73.90
2018-12-25T06:25:30.292Z,73.80
2018-12-25T06:26:13.563Z,73.90
2018-12-25T06:26:52.556Z,73.80
2018-12-25T06:27:34.247Z,73.80
2018-12-25T06:28:12.952Z,73.70
2018-12-25T06:28:52.066Z,73.70
2018-12-25T06:29:31.333Z,73.60
2018-12-25T06:30:10.680Z,73.60
2018-12-25T06:30:50.766Z,73.70
2018-12-25T06:31:29.437Z,73.70
2018-12-25T06:32:08.632Z,73.70
2018-12-25T06:32:47.884Z,73.50
2018-12-25T06:33:26.953Z,73.50
2018-12-25T06:34:05.734Z,73.50
2018-12-25T06:34:44.423Z,73.60
2018-12-25T06:35:23.777Z,73.70
2018-12-25T06:36:02.443Z,73.60
2018-12-25T06:36:41.638Z,73.60
2018-12-25T06:37:20.921Z,73.50
2018-12-25T06:38:00.369Z,73.50
2018-12-25T06:38:39.609Z,73.40
2018-12-25T06:39:18.830Z,73.40
2018-12-25T06:39:58.121Z,73.40
2018-12-25T06:40:37.282Z,73.30
2018-12-25T06:41:16.556Z,73.30
2018-12-25T06:41:55.268Z,73.30
2018-12-25T06:42:33.865Z,73.20
2018-12-25T06:43:12.791Z,73.10
2018-12-25T06:43:52.194Z,73.00
2018-12-25T06:44:31.386Z,72.90
2018-12-25T06:45:10.565Z,72.90
2018-12-25T06:45:49.902Z,72.80
2018-12-25T06:46:28.860Z,72.70
2018-12-25T06:47:07.528Z,72.70
2018-12-25T06:47:46.515Z,72.70
2018-12-25T06:48:25.233Z,72.80
2018-12-25T06:49:03.916Z,72.80
2018-12-25T06:49:43.040Z,72.70
2018-12-25T06:50:22.142Z,72.70
2018-12-25T06:51:03.906Z,72.50
2018-12-25T06:51:42.152Z,72.50
2018-12-25T06:52:21.090Z,72.40
2018-12-25T06:53:00.127Z,72.50
2018-12-25T06:53:41.208Z,72.50
2018-12-25T06:54:20.196Z,72.60
2018-12-25T06:54:58.906Z,72.60
2018-12-25T06:55:38.351Z,72.50
2018-12-25T06:56:17.408Z,72.50
2018-12-25T06:56:56.078Z,72.40
2018-12-25T06:57:34.902Z,72.50
2018-12-25T06:58:14.065Z,72.50
2018-12-25T06:58:53.039Z,72.50
2018-12-25T06:59:32.130Z,72.50
2018-12-25T07:00:11.439Z,72.50
2018-12-25T07:00:50.260Z,72.40
2018-12-25T07:01:29.542Z,72.50
2018-12-25T07:02:08.193Z,72.40
2018-12-25T07:02:46.953Z,72.40
2018-12-25T07:03:25.586Z,72.30
2018-12-25T07:04:04.253Z,72.30
2018-12-25T07:04:43.318Z,72.40
2018-12-25T07:05:22.393Z,72.40
2018-12-25T07:06:01.182Z,72.30
2018-12-25T07:06:42.265Z,72.30
2018-12-25T07:07:26.031Z,73.00
2018-12-25T07:08:05.069Z,72.10
2018-12-25T07:08:44.121Z,72.10
2018-12-25T07:09:22.986Z,72.10
2018-12-25T07:10:02.187Z,72.20
2018-12-25T07:10:40.771Z,72.00
2018-12-25T07:11:20.103Z,72.00
2018-12-25T07:11:59.059Z,71.90
2018-12-25T07:12:37.699Z,71.90
2018-12-25T07:13:16.339Z,72.00
2018-12-25T07:13:55.457Z,72.00
2018-12-25T07:14:34.175Z,72.00
2018-12-25T07:15:14.084Z,71.90
2018-12-25T07:15:53.909Z,71.90
2018-12-25T07:16:32.794Z,72.00
2018-12-25T07:17:12.224Z,72.00
2018-12-25T07:17:51.407Z,72.00
2018-12-25T07:18:30.194Z,72.00
2018-12-25T07:19:09.657Z,72.00
2018-12-25T07:19:48.412Z,71.90
2018-12-25T07:20:28.883Z,71.90
2018-12-25T07:21:12.127Z,72.00
2018-12-25T07:21:47.130Z,72.00
2018-12-25T07:22:25.927Z,71.90
2018-12-25T07:23:06.096Z,71.80
2018-12-25T07:23:44.895Z,71.70
2018-12-25T07:24:24.775Z,71.70
2018-12-25T07:25:04.038Z,71.80
2018-12-25T07:25:42.675Z,71.70
2018-12-25T07:26:22.227Z,71.60
2018-12-25T07:27:01.519Z,71.70
2018-12-25T07:27:40.200Z,71.80
2018-12-25T07:28:18.892Z,71.80
2018-12-25T07:28:58.114Z,71.70
2018-12-25T07:29:36.917Z,71.60
2018-12-25T07:30:15.630Z,71.50
2018-12-25T07:30:55.658Z,71.40
2018-12-25T07:31:34.725Z,71.40
2018-12-25T07:32:14.082Z,71.50
2018-12-25T07:32:53.216Z,71.40
2018-12-25T07:33:32.485Z,71.50
2018-12-25T07:34:11.632Z,71.70
2018-12-25T07:34:51.339Z,71.60
2018-12-25T07:35:33.426Z,71.20
2018-12-25T07:36:12.434Z,70.80
2018-12-25T07:36:52.138Z,69.80
2018-12-25T07:37:30.912Z,69.00
2018-12-25T07:38:09.544Z,68.70
2018-12-25T07:38:48.272Z,67.90
2018-12-25T07:39:27.182Z,66.90
2018-12-25T07:40:06.442Z,66.50
2018-12-25T07:40:45.790Z,66.10
2018-12-25T07:41:24.507Z,65.30
2018-12-25T07:42:04.153Z,65.00
2018-12-25T07:42:43.461Z,64.30
2018-12-25T07:43:22.878Z,63.90
2018-12-25T07:44:03.031Z,63.80
2018-12-25T07:44:42.477Z,63.60
2018-12-25T07:45:21.861Z,63.00
2018-12-25T07:46:00.582Z,62.70
2018-12-25T07:46:40.157Z,63.20
2018-12-25T07:47:19.030Z,61.70
2018-12-25T07:47:58.293Z,61.10
2018-12-25T07:48:39.481Z,61.40
2018-12-25T07:49:18.173Z,60.80
2018-12-25T07:49:57.204Z,60.70
2018-12-25T07:50:36.090Z,60.50
2018-12-25T07:51:20.912Z,59.80
2018-12-25T07:51:57.983Z,59.70
2018-12-25T07:52:37.181Z,59.20
2018-12-25T07:53:16.040Z,59.10
2018-12-25T07:53:55.673Z,59.00
2018-12-25T07:54:35.431Z,58.80
2018-12-25T07:55:14.764Z,58.10
2018-12-25T07:55:53.755Z,58.10
2018-12-25T07:56:32.941Z,58.20
2018-12-25T07:57:11.604Z,58.10
2018-12-25T07:57:53.067Z,57.80
2018-12-25T07:58:31.745Z,57.80
2018-12-25T07:59:13.630Z,57.90
2018-12-25T07:59:53.273Z,58.50
2018-12-25T08:00:32.614Z,58.00
2018-12-25T08:01:11.206Z,58.10
2018-12-25T08:01:50.018Z,57.90
2018-12-25T08:02:28.791Z,58.00
2018-12-25T08:03:07.459Z,58.00
2018-12-25T08:03:46.822Z,58.20
2018-12-25T08:04:26.011Z,58.30
2018-12-25T08:05:05.512Z,58.40
2018-12-25T08:05:44.945Z,58.20
2018-12-25T08:06:23.643Z,58.60
2018-12-25T08:07:02.324Z,59.00
2018-12-25T08:07:41.070Z,58.80
2018-12-25T08:08:20.519Z,59.30
2018-12-25T08:08:59.687Z,59.30
2018-12-25T08:09:38.757Z,59.60
2018-12-25T08:10:18.079Z,59.80
2018-12-25T08:10:57.355Z,59.40
2018-12-25T08:11:36.490Z,59.60
2018-12-25T08:12:16.053Z,59.80
2018-12-25T08:12:55.275Z,60.50
2018-12-25T08:13:33.866Z,60.90
2018-12-25T08:14:12.602Z,61.20
2018-12-25T08:14:51.323Z,61.40
2018-12-25T08:15:30.125Z,61.40
2018-12-25T08:16:09.068Z,61.60
2018-12-25T08:16:48.346Z,61.50
2018-12-25T08:17:27.042Z,61.70
2018-12-25T08:18:06.248Z,61.70
2018-12-25T08:18:45.010Z,62.30
2018-12-25T08:19:23.771Z,62.30
2018-12-25T08:20:02.658Z,62.40
2018-12-25T08:20:41.335Z,62.50
2018-12-25T08:21:20.524Z,62.70
2018-12-25T08:21:59.247Z,62.60
2018-12-25T08:22:38.012Z,62.70
2018-12-25T08:23:17.334Z,63.50
2018-12-25T08:23:56.062Z,63.10
2018-12-25T08:24:34.675Z,63.30
2018-12-25T08:25:13.948Z,63.50
2018-12-25T08:25:53.063Z,63.80
2018-12-25T08:26:31.895Z,63.80
2018-12-25T08:27:10.642Z,63.60
2018-12-25T08:27:49.797Z,63.70
2018-12-25T08:28:28.662Z,64.90
2018-12-25T08:29:07.849Z,63.90
2018-12-25T08:29:47.339Z,64.20
2018-12-25T08:30:26.737Z,64.30
2018-12-25T08:31:08.193Z,64.60
2018-12-25T08:31:46.486Z,64.90
2018-12-25T08:32:25.845Z,65.20
2018-12-25T08:33:04.681Z,65.20
2018-12-25T08:33:43.345Z,65.40
2018-12-25T08:34:22.596Z,65.20
2018-12-25T08:35:01.471Z,65.30
2018-12-25T08:35:40.451Z,65.50
2018-12-25T08:36:19.711Z,65.80
2018-12-25T08:36:59.564Z,65.80
2018-12-25T08:37:39.486Z,66.20
2018-12-25T08:38:18.848Z,66.00
2018-12-25T08:38:57.565Z,66.40
2018-12-25T08:39:36.965Z,66.50
2018-12-25T08:40:15.819Z,66.70
2018-12-25T08:40:54.646Z,66.60
2018-12-25T08:41:33.324Z,66.70
2018-12-25T08:42:12.299Z,66.90
2018-12-25T08:42:51.172Z,66.80
2018-12-25T08:43:30.404Z,66.80
2018-12-25T08:44:09.584Z,67.00
2018-12-25T08:44:48.360Z,67.20
2018-12-25T08:45:27.475Z,67.20
2018-12-25T08:46:06.567Z,67.00
2018-12-25T08:46:45.611Z,67.20
2018-12-25T08:47:24.983Z,67.30
2018-12-25T08:48:03.743Z,67.60
2018-12-25T08:48:42.880Z,67.60
2018-12-25T08:49:22.042Z,67.60
2018-12-25T08:50:01.081Z,67.70
2018-12-25T08:50:39.948Z,67.90
2018-12-25T08:51:19.087Z,67.90
2018-12-25T08:51:58.541Z,68.10
2018-12-25T08:52:37.833Z,68.10
2018-12-25T08:53:16.563Z,67.90
2018-12-25T08:53:55.406Z,68.00
2018-12-25T08:54:34.049Z,68.10
2018-12-25T08:55:13.484Z,68.20
2018-12-25T08:55:52.467Z,68.40
2018-12-25T08:56:36.738Z,68.40
2018-12-25T08:57:15.390Z,68.30
2018-12-25T08:57:54.973Z,68.20
2018-12-25T08:58:33.615Z,68.20
2018-12-25T08:59:12.731Z,68.20
2018-12-25T08:59:55.008Z,68.40
2018-12-25T09:00:34.084Z,68.40
2018-12-25T09:01:13.221Z,68.40
2018-12-25T09:01:52.325Z,68.40
2018-12-25T09:02:31.582Z,68.50
2018-12-25T09:03:11.025Z,68.50
2018-12-25T09:03:50.330Z,68.60
2018-12-25T09:04:28.937Z,68.60
2018-12-25T09:05:08.188Z,68.70
2018-12-25T09:05:46.966Z,68.60
2018-12-25T09:06:25.598Z,68.70
2018-12-25T09:07:04.576Z,68.50
2018-12-25T09:07:43.288Z,68.50
2018-12-25T09:08:22.923Z,68.50
2018-12-25T09:09:02.183Z,68.40
2018-12-25T09:09:41.260Z,68.50
2018-12-25T09:10:20.512Z,68.60
2018-12-25T09:10:59.231Z,68.70
2018-12-25T09:11:38.099Z,68.50
2018-12-25T09:12:20.067Z,68.50
2018-12-25T09:12:58.830Z,68.50
2018-12-25T09:13:38.088Z,68.50
2018-12-25T09:14:18.700Z,68.70
2018-12-25T09:14:57.414Z,68.60
2018-12-25T09:15:36.094Z,68.60
2018-12-25T09:16:14.963Z,68.60
2018-12-25T09:16:54.323Z,68.60
2018-12-25T09:17:35.115Z,68.60
2018-12-25T09:18:16.466Z,68.50
2018-12-25T09:18:55.317Z,68.50
2018-12-25T09:19:35.947Z,68.70
2018-12-25T09:20:14.974Z,68.60
2018-12-25T09:20:54.107Z,68.70
2018-12-25T09:21:33.458Z,68.80
2018-12-25T09:22:12.822Z,68.60
2018-12-25T09:22:52.079Z,68.60
2018-12-25T09:23:31.508Z,68.60
2018-12-25T09:24:10.178Z,68.70
2018-12-25T09:24:48.933Z,68.70
2018-12-25T09:25:27.639Z,68.80
2018-12-25T09:26:06.390Z,68.70
2018-12-25T09:26:45.577Z,68.60
2018-12-25T09:27:24.807Z,68.70
2018-12-25T09:28:04.286Z,68.80
2018-12-25T09:28:42.959Z,68.70
2018-12-25T09:29:22.228Z,68.60
2018-12-25T09:30:01.493Z,68.50
2018-12-25T09:30:40.969Z,68.50
2018-12-25T09:31:19.876Z,68.50
2018-12-25T09:32:01.817Z,68.50
2018-12-25T09:32:40.547Z,68.50
2018-12-25T09:33:19.836Z,68.70
2018-12-25T09:33:58.526Z,68.90
2018-12-25T09:34:37.252Z,68.80
2018-12-25T09:35:16.162Z,68.80
2018-12-25T09:35:55.393Z,68.80
2018-12-25T09:36:34.042Z,69.00
2018-12-25T09:37:12.648Z,68.90
2018-12-25T09:37:51.498Z,69.00
2018-12-25T09:38:31.954Z,68.90
2018-12-25T09:39:12.166Z,69.00
2018-12-25T09:39:50.822Z,69.00
2018-12-25T09:40:29.492Z,68.90
2018-12-25T09:41:08.159Z,68.90
2018-12-25T09:41:46.861Z,69.00
2018-12-25T09:42:25.543Z,69.00
2018-12-25T09:43:04.184Z,69.10
2018-12-25T09:43:42.898Z,69.20
2018-12-25T09:44:21.572Z,69.20
2018-12-25T09:45:00.286Z,69.10
2018-12-25T09:45:39.071Z,69.20
2018-12-25T09:46:17.813Z,69.10
2018-12-25T09:46:56.514Z,69.10
2018-12-25T09:47:35.195Z,69.20
2018-12-25T09:48:14.826Z,69.20
2018-12-25T09:48:56.174Z,69.10
2018-12-25T09:49:34.864Z,69.00
2018-12-25T09:50:13.623Z,69.00
2018-12-25T09:50:52.319Z,68.90
2018-12-25T09:51:31.146Z,69.10
2018-12-25T09:52:09.842Z,69.10
2018-12-25T09:52:48.523Z,69.30
2018-12-25T09:53:28.424Z,69.40
2018-12-25T09:54:07.083Z,69.20
2018-12-25T09:54:45.669Z,69.20
2018-12-25T09:55:24.365Z,69.20
2018-12-25T09:56:03.034Z,69.20
2018-12-25T09:56:41.831Z,69.20
2018-12-25T09:57:20.722Z,69.30
2018-12-25T09:57:59.494Z,69.30
2018-12-25T09:58:38.143Z,69.40
2018-12-25T09:59:17.294Z,69.50
2018-12-25T09:59:56.022Z,69.60
2018-12-25T10:00:34.778Z,69.50
2018-12-25T10:01:13.496Z,69.40
2018-12-25T10:01:52.299Z,69.70
2018-12-25T10:02:30.954Z,69.60
2018-12-25T10:03:09.775Z,69.60
2018-12-25T10:03:48.502Z,69.40